createdAt,value
2019-01-21T00:04:28.190Z,27.30
2019-01-21T00:07:10.802Z,28.27
2019-01-21T00:09:52.954Z,27.87
2019-01-21T00:12:35.625Z,27.40
2019-01-21T00:15:17.682Z,26.57
2019-01-21T00:17:59.948Z,26.07
2019-01-21T00:20:42.698Z,27.40
2019-01-21T00:23:24.818Z,27.35
2019-01-21T00:26:06.587Z,26.02
2019-01-21T00:28:48.537Z,27.15
2019-01-21T00:31:30.832Z,25.75
2019-01-21T00:34:13.797Z,26.60
2019-01-21T00:36:55.667Z,26.57
2019-01-21T00:39:38.195Z,27.05
2019-01-21T00:42:20.387Z,26.97
2019-01-21T00:45:02.414Z,27.00
2019-01-21T00:47:44.851Z,26.57
2019-01-21T00:50:27.019Z,28.35
2019-01-21T00:53:09.535Z,26.80
2019-01-21T00:55:51.611Z,26.97
2019-01-21T00:58:34.233Z,28.30
2019-01-21T01:01:16.526Z,27.00
2019-01-21T01:03:58.683Z,26.77
2019-01-21T01:06:40.826Z,25.82
2019-01-21T01:09:22.818Z,26.48
2019-01-21T01:12:04.987Z,25.32
2019-01-21T01:14:46.970Z,27.37
2019-01-21T01:17:29.636Z,26.97
2019-01-21T01:20:11.475Z,25.92
2019-01-21T01:22:53.472Z,26.35
2019-01-21T01:25:36.206Z,28.12
2019-01-21T01:28:18.426Z,27.30
2019-01-21T01:31:00.595Z,26.65
2019-01-21T01:33:42.863Z,27.37
2019-01-21T01:36:25.286Z,27.62
2019-01-21T01:39:08.182Z,25.30
2019-01-21T01:41:50.485Z,25.35
2019-01-21T01:44:32.890Z,26.57
2019-01-21T01:47:15.035Z,24.90
2019-01-21T01:49:56.981Z,25.37
2019-01-21T01:52:39.918Z,23.92
2019-01-21T01:55:22.465Z,24.07
2019-01-21T01:58:04.365Z,25.62
2019-01-21T02:00:46.763Z,24.67
2019-01-21T02:03:28.933Z,24.67
2019-01-21T02:06:11.350Z,24.07
2019-01-21T02:08:53.611Z,26.00
2019-01-21T02:11:35.853Z,25.62
2019-01-21T02:14:18.880Z,23.45
2019-01-21T02:17:00.810Z,24.70
2019-01-21T02:19:42.855Z,23.70
2019-01-21T02:22:24.835Z,23.22
2019-01-21T02:25:07.224Z,25.88
2019-01-21T02:27:49.040Z,25.02
2019-01-21T02:30:32.169Z,24.43
2019-01-21T02:33:15.091Z,24.70
2019-01-21T02:35:57.481Z,25.60
2019-01-21T02:38:39.719Z,24.98
2019-01-21T02:41:22.787Z,24.52
2019-01-21T02:44:05.002Z,24.98
2019-01-21T02:46:47.158Z,23.67
2019-01-21T02:49:29.310Z,23.18
2019-01-21T02:52:11.645Z,23.05
2019-01-21T02:54:54.276Z,23.12
2019-01-21T02:57:36.673Z,23.32
2019-01-21T03:00:18.857Z,24.32
2019-01-21T03:03:01.417Z,23.80
2019-01-21T03:05:43.433Z,24.35
2019-01-21T03:08:25.725Z,23.85
2019-01-21T03:11:08.086Z,23.05
2019-01-21T03:13:50.367Z,23.50
2019-01-21T03:16:32.320Z,24.98
2019-01-21T03:19:14.171Z,23.67
2019-01-21T03:21:56.239Z,24.90
2019-01-21T03:24:38.382Z,25.27
2019-01-21T03:27:20.768Z,23.60
2019-01-21T03:30:03.408Z,24.80
2019-01-21T03:32:45.558Z,25.15
2019-01-21T03:35:27.668Z,23.80
2019-01-21T03:38:09.569Z,24.18
2019-01-21T03:40:51.930Z,24.70
2019-01-21T03:43:35.130Z,25.00
2019-01-21T03:46:17.402Z,24.37
2019-01-21T03:48:59.507Z,25.23
2019-01-21T03:51:42.049Z,23.77
2019-01-21T03:54:24.662Z,24.27
2019-01-21T03:57:06.779Z,24.90
2019-01-21T03:59:49.015Z,26.35
2019-01-21T04:02:30.842Z,26.07
2019-01-21T04:05:12.762Z,25.80
2019-01-21T04:07:54.801Z,25.12
2019-01-21T04:10:36.965Z,26.07
2019-01-21T04:13:19.307Z,24.45
2019-01-21T04:16:01.548Z,25.95
2019-01-21T04:18:43.988Z,26.02
2019-01-21T04:21:26.477Z,25.35
2019-01-21T04:24:08.689Z,27.10
2019-01-21T04:26:51.081Z,27.60
2019-01-21T04:29:33.594Z,26.62
2019-01-21T04:32:16.591Z,26.93
2019-01-21T04:34:58.737Z,28.00
2019-01-21T04:37:41.197Z,28.47
2019-01-21T04:40:26.473Z,26.20
2019-01-21T04:43:09.089Z,28.02
2019-01-21T04:45:52.422Z,29.20
2019-01-21T04:48:34.779Z,27.95
2019-01-21T04:51:17.053Z,28.15
2019-01-21T04:53:59.647Z,27.85
2019-01-21T04:56:41.695Z,28.57
2019-01-21T04:59:24.190Z,29.02
2019-01-21T05:02:06.176Z,32.23
2019-01-21T05:04:50.422Z,31.90
2019-01-21T05:07:33.317Z,30.57
2019-01-21T05:10:15.245Z,28.95
2019-01-21T05:12:57.529Z,30.88
2019-01-21T05:15:39.681Z,29.48
2019-01-21T05:18:22.069Z,30.70
2019-01-21T05:21:04.590Z,29.63
2019-01-21T05:23:46.730Z,30.45
2019-01-21T05:26:28.864Z,29.80
2019-01-21T05:29:11.215Z,28.62
2019-01-21T05:31:53.352Z,28.83
2019-01-21T05:34:35.669Z,28.30
2019-01-21T05:37:18.409Z,30.68
2019-01-21T05:40:00.295Z,30.62
2019-01-21T05:42:42.723Z,28.95
2019-01-21T05:45:24.565Z,31.50
2019-01-21T05:48:06.475Z,32.00
2019-01-21T05:50:48.691Z,32.13
2019-01-21T05:53:30.965Z,31.05
2019-01-21T05:56:13.612Z,32.03
2019-01-21T05:58:55.789Z,30.27
2019-01-21T06:01:38.452Z,31.62
2019-01-21T06:04:20.361Z,33.78
2019-01-21T06:07:02.879Z,30.85
2019-01-21T06:09:44.790Z,32.30
2019-01-21T06:12:26.833Z,32.08
2019-01-21T06:15:08.746Z,32.98
2019-01-21T06:17:51.219Z,34.98
2019-01-21T06:20:33.746Z,32.03
2019-01-21T06:23:16.030Z,34.38
2019-01-21T06:25:57.796Z,36.23
2019-01-21T06:28:39.859Z,35.80
2019-01-21T06:31:21.974Z,35.00
2019-01-21T06:34:04.129Z,34.88
2019-01-21T06:36:46.089Z,36.85
2019-01-21T06:39:28.651Z,37.78
2019-01-21T06:42:10.462Z,37.78
2019-01-21T06:44:52.837Z,38.88
2019-01-21T06:47:35.302Z,38.25
2019-01-21T06:50:17.535Z,37.80
2019-01-21T06:52:59.727Z,36.00
2019-01-21T06:55:42.148Z,37.80
2019-01-21T06:58:24.112Z,36.58
2019-01-21T07:01:06.412Z,36.68
2019-01-21T07:03:48.183Z,38.90
2019-01-21T07:06:30.281Z,42.50
2019-01-21T07:09:12.287Z,38.35
2019-01-21T07:11:54.890Z,37.38
2019-01-21T07:14:37.036Z,35.75
2019-01-21T07:17:19.389Z,37.08
2019-01-21T07:20:01.578Z,37.05
2019-01-21T07:22:43.851Z,38.17
2019-01-21T07:25:25.690Z,40.10
2019-01-21T07:28:08.277Z,40.10
2019-01-21T07:30:50.009Z,36.10
2019-01-21T07:33:32.370Z,37.55
2019-01-21T07:36:14.687Z,37.15
2019-01-21T07:38:56.890Z,38.35
2019-01-21T07:41:39.003Z,36.65
2019-01-21T07:44:21.709Z,36.83
2019-01-21T07:47:04.049Z,37.33
2019-01-21T07:49:46.027Z,37.60
2019-01-21T07:52:28.118Z,37.05
2019-01-21T07:55:10.618Z,38.35
2019-01-21T07:57:52.723Z,37.60
2019-01-21T08:00:34.731Z,37.90
2019-01-21T08:03:17.691Z,36.00
2019-01-21T08:05:59.491Z,38.02
2019-01-21T08:08:41.393Z,37.13
2019-01-21T08:11:24.054Z,36.35
2019-01-21T08:14:06.023Z,36.50
2019-01-21T08:16:49.582Z,38.17
2019-01-21T08:19:32.203Z,36.53
2019-01-21T08:22:14.714Z,36.60
2019-01-21T08:24:56.565Z,37.33
2019-01-21T08:27:39.278Z,37.20
2019-01-21T08:30:21.524Z,36.33
2019-01-21T08:33:03.413Z,38.80
2019-01-21T08:35:45.129Z,36.17
2019-01-21T08:38:27.377Z,35.55
2019-01-21T08:41:09.599Z,37.20
2019-01-21T08:43:52.273Z,36.55
2019-01-21T08:46:34.710Z,36.70
2019-01-21T08:49:16.993Z,38.88
2019-01-21T08:51:59.352Z,35.10
2019-01-21T08:54:41.799Z,35.25
2019-01-21T08:57:24.450Z,35.98
2019-01-21T09:00:06.933Z,38.48
2019-01-21T09:02:49.461Z,35.55
2019-01-21T09:05:31.330Z,36.28
2019-01-21T09:08:13.954Z,37.03
2019-01-21T09:10:56.209Z,37.08
2019-01-21T09:13:38.385Z,38.38
2019-01-21T09:16:20.831Z,37.73
2019-01-21T09:19:02.802Z,39.75
2019-01-21T09:21:44.906Z,37.17
2019-01-21T09:24:27.420Z,37.67
2019-01-21T09:27:09.587Z,35.55
2019-01-21T09:29:51.310Z,35.78
2019-01-21T09:32:33.147Z,37.25
2019-01-21T09:35:15.812Z,37.60
2019-01-21T09:37:57.558Z,38.42
2019-01-21T09:40:39.995Z,36.98
2019-01-21T09:43:21.988Z,36.20
2019-01-21T09:46:04.024Z,37.50
2019-01-21T09:48:46.503Z,37.23
2019-01-21T09:51:28.893Z,38.10
2019-01-21T09:54:11.075Z,36.98
2019-01-21T09:56:53.313Z,37.48
2019-01-21T09:59:35.958Z,37.35
2019-01-21T10:02:17.978Z,38.08
2019-01-21T10:05:00.297Z,39.83
2019-01-21T10:07:42.550Z,36.28
2019-01-21T10:10:25.116Z,36.77
2019-01-21T10:13:07.682Z,36.50
2019-01-21T10:15:50.183Z,36.90
2019-01-21T10:18:32.534Z,37.90
2019-01-21T10:21:14.394Z,37.90
2019-01-21T10:23:56.557Z,36.20
2019-01-21T10:26:38.791Z,36.90
2019-01-21T10:29:21.577Z,35.95
2019-01-21T10:32:04.082Z,40.65
2019-01-21T10:34:45.960Z,38.67
2019-01-21T10:37:28.054Z,36.00
2019-01-21T10:40:10.421Z,35.43
2019-01-21T10:42:52.758Z,35.98
2019-01-21T10:45:34.857Z,36.88
2019-01-21T10:48:17.211Z,37.67
2019-01-21T10:50:59.727Z,36.28
2019-01-21T10:53:42.398Z,37.30
2019-01-21T10:56:24.993Z,35.15
2019-01-21T10:59:07.453Z,38.92
2019-01-21T11:01:49.754Z,35.63
2019-01-21T11:04:31.605Z,37.83
2019-01-21T11:07:13.348Z,35.38
2019-01-21T11:09:55.346Z,33.95
2019-01-21T11:12:37.829Z,37.42
2019-01-21T11:15:19.935Z,35.60
2019-01-21T11:18:01.817Z,37.17
2019-01-21T11:20:43.756Z,35.00
2019-01-21T11:23:25.777Z,35.70
2019-01-21T11:26:08.011Z,36.17
2019-01-21T11:28:50.397Z,34.60
2019-01-21T11:31:32.200Z,36.73
2019-01-21T11:34:14.077Z,36.30
2019-01-21T11:36:56.395Z,37.42
2019-01-21T11:39:38.956Z,35.98
2019-01-21T11:42:21.600Z,36.65
2019-01-21T11:45:03.839Z,36.08
2019-01-21T11:47:45.879Z,34.20
2019-01-21T11:50:28.178Z,36.75
2019-01-21T11:53:10.462Z,36.77
2019-01-21T11:55:53.219Z,37.38
2019-01-21T11:58:35.042Z,34.92
2019-01-21T12:01:17.310Z,36.98
2019-01-21T12:03:59.630Z,36.00
2019-01-21T12:06:41.787Z,35.35
2019-01-21T12:09:24.126Z,36.33
2019-01-21T12:12:06.373Z,35.15
2019-01-21T12:14:48.341Z,35.70
2019-01-21T12:17:30.606Z,36.73
2019-01-21T12:20:16.982Z,36.80
2019-01-21T12:22:56.802Z,37.45
2019-01-21T12:25:39.438Z,36.83
2019-01-21T12:28:21.624Z,35.17
2019-01-21T12:31:04.265Z,38.63
2019-01-21T12:33:46.640Z,36.28
2019-01-21T12:36:28.825Z,35.88
2019-01-21T12:39:11.034Z,40.08
2019-01-21T12:41:53.532Z,37.30
2019-01-21T12:44:36.445Z,37.05
2019-01-21T12:47:18.799Z,36.80
2019-01-21T12:50:00.985Z,35.20
2019-01-21T12:52:43.381Z,33.20
2019-01-21T12:55:26.924Z,36.73
2019-01-21T12:58:09.150Z,37.58
2019-01-21T13:00:51.504Z,35.03
2019-01-21T13:03:33.630Z,39.58
2019-01-21T13:06:16.337Z,36.40
2019-01-21T13:08:58.439Z,35.58
2019-01-21T13:11:40.721Z,35.45
2019-01-21T13:14:22.831Z,35.28
2019-01-21T13:17:04.826Z,34.53
2019-01-21T13:19:46.885Z,34.15
2019-01-21T13:22:29.062Z,34.18
2019-01-21T13:25:10.845Z,34.18
2019-01-21T13:27:52.732Z,34.27
2019-01-21T13:30:34.973Z,35.17
2019-01-21T13:33:16.729Z,32.42
2019-01-21T13:35:58.851Z,33.20
2019-01-21T13:38:40.778Z,33.98
2019-01-21T13:41:22.857Z,35.03
2019-01-21T13:44:05.764Z,34.05
2019-01-21T13:46:47.907Z,31.45
2019-01-21T13:49:30.378Z,31.90
2019-01-21T13:52:12.773Z,32.70
2019-01-21T13:54:55.299Z,31.52
2019-01-21T13:57:37.735Z,31.85
2019-01-21T14:00:19.741Z,32.85
2019-01-21T14:03:01.915Z,30.25
2019-01-21T14:05:44.160Z,32.23
2019-01-21T14:08:26.910Z,32.40
2019-01-21T14:11:09.111Z,31.60
2019-01-21T14:13:51.275Z,34.08
2019-01-21T14:16:33.658Z,34.80
2019-01-21T14:19:16.208Z,32.60
2019-01-21T14:21:58.521Z,33.85
2019-01-21T14:24:40.535Z,31.30
2019-01-21T14:27:23.950Z,32.50
2019-01-21T14:30:06.575Z,34.43
2019-01-21T14:32:49.244Z,33.80
2019-01-21T14:35:31.478Z,33.63
2019-01-21T14:38:13.611Z,35.78
2019-01-21T14:40:55.729Z,33.80
2019-01-21T14:43:38.481Z,38.90
2019-01-21T14:46:20.810Z,35.43
2019-01-21T14:49:04.869Z,36.45
2019-01-21T14:51:46.803Z,34.85
2019-01-21T14:54:29.359Z,33.92
2019-01-21T14:57:11.721Z,34.53
2019-01-21T14:59:53.860Z,35.03
2019-01-21T15:02:36.968Z,33.95
2019-01-21T15:05:19.218Z,34.23
2019-01-21T15:08:01.431Z,36.10
2019-01-21T15:10:44.016Z,35.50
2019-01-21T15:13:27.719Z,34.58
2019-01-21T15:16:09.943Z,33.58
2019-01-21T15:18:51.749Z,34.00
2019-01-21T15:21:34.338Z,34.60
2019-01-21T15:24:16.753Z,35.60
2019-01-21T15:26:59.160Z,35.45
2019-01-21T15:29:41.688Z,34.15
2019-01-21T15:32:23.724Z,34.35
2019-01-21T15:35:05.711Z,34.70
2019-01-21T15:37:48.002Z,35.33
2019-01-21T15:40:30.183Z,32.60
2019-01-21T15:43:12.433Z,35.43
2019-01-21T15:45:56.780Z,33.38
2019-01-21T15:48:38.888Z,33.98
2019-01-21T15:51:21.040Z,33.28
2019-01-21T15:54:02.995Z,32.30
2019-01-21T15:56:45.509Z,34.80
2019-01-21T15:59:27.917Z,32.70
2019-01-21T16:02:10.534Z,38.37
2019-01-21T16:04:53.029Z,35.95
2019-01-21T16:07:35.577Z,34.83
2019-01-21T16:10:18.067Z,33.88
2019-01-21T16:13:00.299Z,34.80
2019-01-21T16:15:42.277Z,34.27
2019-01-21T16:18:24.157Z,34.65
2019-01-21T16:21:12.595Z,35.60
2019-01-21T16:23:50.228Z,32.13
2019-01-21T16:26:33.301Z,32.55
2019-01-21T16:29:17.450Z,33.48
2019-01-21T16:31:59.348Z,31.90
2019-01-21T16:34:41.692Z,33.20
2019-01-21T16:37:23.753Z,33.48
2019-01-21T16:40:05.941Z,32.80
2019-01-21T16:42:48.376Z,33.08
2019-01-21T16:45:30.615Z,33.38
2019-01-21T16:48:13.237Z,34.55
2019-01-21T16:50:55.313Z,34.92
2019-01-21T16:53:37.632Z,32.38
2019-01-21T16:56:19.677Z,34.27
2019-01-21T16:59:01.871Z,31.48
2019-01-21T17:01:43.828Z,33.78
2019-01-21T17:04:26.182Z,34.08
2019-01-21T17:07:08.216Z,33.90
2019-01-21T17:09:51.097Z,34.10
2019-01-21T17:12:33.104Z,34.58
2019-01-21T17:15:15.681Z,34.20
2019-01-21T17:17:57.494Z,34.98
2019-01-21T17:20:40.051Z,35.73
2019-01-21T17:23:22.507Z,37.63
2019-01-21T17:26:04.985Z,36.15
2019-01-21T17:28:47.939Z,35.35
2019-01-21T17:31:30.213Z,34.18
2019-01-21T17:34:13.125Z,33.90
2019-01-21T17:36:55.435Z,35.20
2019-01-21T17:39:38.194Z,35.80
2019-01-21T17:42:20.789Z,33.53
2019-01-21T17:45:02.639Z,32.75
2019-01-21T17:47:47.484Z,34.03
2019-01-21T17:50:29.899Z,36.28
2019-01-21T17:53:12.244Z,33.10
2019-01-21T17:55:54.039Z,35.15
2019-01-21T17:58:36.613Z,35.48
2019-01-21T18:01:18.538Z,37.80
2019-01-21T18:04:01.642Z,34.60
2019-01-21T18:06:43.665Z,37.10
2019-01-21T18:09:25.758Z,33.40
2019-01-21T18:12:07.906Z,33.00
2019-01-21T18:14:50.539Z,32.85
2019-01-21T18:17:32.338Z,34.23
2019-01-21T18:20:14.557Z,33.45
2019-01-21T18:22:56.870Z,35.90
2019-01-21T18:25:39.358Z,37.17
2019-01-21T18:28:21.483Z,33.60
2019-01-21T18:31:03.313Z,34.35
2019-01-21T18:33:45.449Z,34.35
2019-01-21T18:36:27.609Z,36.00
2019-01-21T18:39:09.406Z,34.67
2019-01-21T18:41:51.887Z,33.75
2019-01-21T18:44:34.106Z,30.55
2019-01-21T18:47:16.191Z,28.25
2019-01-21T18:49:58.254Z,25.70
2019-01-21T18:52:40.759Z,27.60
2019-01-21T18:55:22.735Z,27.27
2019-01-21T18:58:05.069Z,30.90
2019-01-21T19:03:26.930Z,31.07
2019-01-21T19:06:09.856Z,29.32
2019-01-21T19:08:51.618Z,33.15
2019-01-21T19:11:34.193Z,32.58
2019-01-21T19:14:16.690Z,33.70
2019-01-21T19:16:58.997Z,33.02
2019-01-21T19:19:42.120Z,32.10
2019-01-21T19:22:24.422Z,33.98
2019-01-21T19:25:06.728Z,29.92
2019-01-21T19:27:48.693Z,30.92
2019-01-21T19:30:31.258Z,30.77
2019-01-21T19:33:13.246Z,29.05
2019-01-21T19:35:55.298Z,28.80
2019-01-21T19:38:37.647Z,30.35
2019-01-21T19:41:19.621Z,29.87
2019-01-21T19:44:01.604Z,29.65
2019-01-21T19:46:44.406Z,28.65
2019-01-21T19:49:26.977Z,27.60
2019-01-21T19:52:09.115Z,30.30
2019-01-21T19:54:51.486Z,28.15
2019-01-21T19:57:33.213Z,28.15
2019-01-21T20:00:15.498Z,29.35
2019-01-21T20:02:57.538Z,30.32
2019-01-21T20:05:39.388Z,30.05
2019-01-21T20:08:22.068Z,30.02
2019-01-21T20:11:04.613Z,31.93
2019-01-21T20:13:47.092Z,29.67
2019-01-21T20:16:29.385Z,29.00
2019-01-21T20:19:11.787Z,30.62
2019-01-21T20:21:54.289Z,30.68
2019-01-21T20:24:36.507Z,31.35
2019-01-21T20:27:18.445Z,29.30
2019-01-21T20:30:00.646Z,31.62
2019-01-21T20:32:43.227Z,30.75
2019-01-21T20:35:25.144Z,30.30
2019-01-21T20:38:06.901Z,30.60
2019-01-21T20:40:49.433Z,28.50
2019-01-21T20:43:31.990Z,29.23
2019-01-21T20:46:14.670Z,30.23
2019-01-21T20:48:57.091Z,31.57
2019-01-21T20:51:39.527Z,28.77
2019-01-21T20:54:21.709Z,29.63
2019-01-21T20:57:04.276Z,29.75
2019-01-21T20:59:46.284Z,28.40
2019-01-21T21:02:28.818Z,29.20
2019-01-21T21:05:10.774Z,28.67
2019-01-21T21:07:52.846Z,30.00
2019-01-21T21:10:35.175Z,28.87
2019-01-21T21:13:17.369Z,27.20
2019-01-21T21:15:59.881Z,26.27
2019-01-21T21:18:42.096Z,27.77
2019-01-21T21:21:24.953Z,25.55
2019-01-21T21:24:06.670Z,27.15
2019-01-21T21:26:49.262Z,25.60
2019-01-21T21:29:31.370Z,23.38
2019-01-21T21:32:13.988Z,25.80
2019-01-21T21:34:55.782Z,24.70
2019-01-21T21:37:37.947Z,26.55
2019-01-21T21:40:20.433Z,25.05
2019-01-21T21:43:02.900Z,26.48
2019-01-21T21:45:45.523Z,26.50
2019-01-21T21:48:31.726Z,26.68
2019-01-21T21:51:11.053Z,24.52
2019-01-21T21:53:53.233Z,28.00
2019-01-21T21:56:35.957Z,26.33
2019-01-21T21:59:18.270Z,26.23
2019-01-21T22:02:00.678Z,26.07
2019-01-21T22:04:42.961Z,27.58
2019-01-21T22:07:25.061Z,26.02
2019-01-21T22:10:07.285Z,26.37
2019-01-21T22:12:49.559Z,27.13
2019-01-21T22:15:31.463Z,27.00
2019-01-21T22:18:13.965Z,27.05
2019-01-21T22:20:56.318Z,26.20
2019-01-21T22:23:38.395Z,27.10
2019-01-21T22:26:20.641Z,27.65
2019-01-21T22:29:03.081Z,27.45
2019-01-21T22:31:44.970Z,27.65
2019-01-21T22:34:26.981Z,25.02
2019-01-21T22:37:08.863Z,25.45
2019-01-21T22:39:50.921Z,27.62
2019-01-21T22:42:33.784Z,26.27
2019-01-21T22:45:16.293Z,25.43
2019-01-21T22:47:58.429Z,24.77
2019-01-21T22:50:40.698Z,27.13
2019-01-21T22:53:22.771Z,25.37
2019-01-21T22:56:05.635Z,24.55
2019-01-21T22:58:50.058Z,26.35
2019-01-21T23:01:32.330Z,26.20
2019-01-21T23:04:14.438Z,27.10
2019-01-21T23:06:56.415Z,26.40
2019-01-21T23:09:38.799Z,26.23
2019-01-21T23:12:20.923Z,26.75
2019-01-21T23:15:01.954Z,26.70
2019-01-21T23:17:51.542Z,24.90
2019-01-21T23:20:41.305Z,25.65
2019-01-21T23:23:51.951Z,26.77
2019-01-21T23:26:41.957Z,25.80
2019-01-21T23:29:31.610Z,26.65
2019-01-21T23:32:21.261Z,25.88
2019-01-21T23:35:11.062Z,26.75
2019-01-21T23:38:00.770Z,25.77
2019-01-21T23:40:50.400Z,27.55
2019-01-21T23:43:40.206Z,26.10
2019-01-21T23:52:56.314Z,25.10
2019-01-21T23:56:03.957Z,26.55
2019-01-21T23:58:53.597Z,24.07
